Terminal Aerodrome Forecast
Issued by NWS

Home | Current Version | Previous Version | Text Only | Print | Product List | Glossary Off
Versions: 1 2 3 4 5 6 7 8 9 10 11 12 13 14

000
FTUS43 KOAX 131537 AAA
TAFCDR
TAF AMD
KCDR 131537Z 1316/1412 30017KT P6SM SCT250
     FM131800 32019G27KT P6SM SCT200
     FM140000 32011KT P6SM BKN100 OVC150=

USA.gov is the U.S. government's official web portal to all federal, state and local government web resources and services.